createdAt,value
2023-04-27T00:02:20.369Z,100.00
2023-04-27T00:04:48.110Z,100.00
2023-04-27T00:07:15.767Z,100.00
2023-04-27T00:09:43.145Z,100.00
2023-04-27T00:12:10.536Z,100.00
2023-04-27T00:14:37.522Z,100.00
2023-04-27T00:17:04.878Z,100.00
2023-04-27T00:19:32.318Z,100.00
2023-04-27T00:22:00.323Z,100.00
2023-04-27T00:24:27.953Z,100.00
2023-04-27T00:26:55.728Z,100.00
2023-04-27T00:29:23.100Z,100.00
2023-04-27T00:31:50.540Z,100.00
2023-04-27T00:34:17.999Z,100.00
2023-04-27T00:36:45.502Z,100.00
2023-04-27T00:39:13.064Z,100.00
2023-04-27T00:41:40.809Z,100.00
2023-04-27T00:44:08.234Z,100.00
2023-04-27T00:46:36.268Z,100.00
2023-04-27T00:49:03.747Z,100.00
2023-04-27T00:51:32.218Z,100.00
2023-04-27T00:54:00.149Z,100.00
2023-04-27T00:56:27.514Z,100.00
2023-04-27T00:58:54.881Z,100.00
2023-04-27T01:01:22.399Z,100.00
2023-04-27T01:03:50.087Z,100.00
2023-04-27T01:06:17.936Z,100.00
2023-04-27T01:08:46.600Z,100.00
2023-04-27T01:11:14.099Z,100.00
2023-04-27T01:13:41.463Z,100.00
2023-04-27T01:16:08.830Z,100.00
2023-04-27T01:18:36.278Z,100.00
2023-04-27T01:21:03.708Z,100.00
2023-04-27T01:23:31.167Z,100.00
2023-04-27T01:25:58.533Z,100.00
2023-04-27T01:28:25.954Z,100.00
2023-04-27T01:30:53.434Z,100.00
2023-04-27T01:33:21.470Z,100.00
2023-04-27T01:35:49.373Z,100.00
2023-04-27T01:38:17.352Z,100.00
2023-04-27T01:40:44.714Z,100.00
2023-04-27T01:43:12.097Z,100.00
2023-04-27T01:45:39.398Z,100.00
2023-04-27T01:48:07.032Z,100.00
2023-04-27T01:50:34.453Z,100.00
2023-04-27T01:53:02.079Z,100.00
2023-04-27T01:55:29.482Z,100.00
2023-04-27T01:57:56.915Z,100.00
2023-04-27T02:00:24.328Z,100.00
2023-04-27T02:02:53.588Z,100.00
2023-04-27T02:05:21.226Z,100.00
2023-04-27T02:07:49.791Z,100.00
2023-04-27T02:10:17.449Z,100.00
2023-04-27T02:12:44.855Z,100.00
2023-04-27T02:15:12.216Z,100.00
2023-04-27T02:17:40.061Z,100.00
2023-04-27T02:20:08.995Z,100.00
2023-04-27T02:22:36.484Z,100.00
2023-04-27T02:25:04.253Z,100.00
2023-04-27T02:27:31.638Z,100.00
2023-04-27T02:29:59.490Z,100.00
2023-04-27T02:32:27.384Z,100.00
2023-04-27T02:34:56.791Z,100.00
2023-04-27T02:37:24.229Z,100.00
2023-04-27T02:39:51.568Z,100.00
2023-04-27T02:42:18.950Z,100.00
2023-04-27T02:44:46.419Z,100.00
2023-04-27T02:47:13.838Z,100.00
2023-04-27T02:49:41.319Z,100.00
2023-04-27T02:52:09.090Z,100.00
2023-04-27T02:54:36.762Z,100.00
2023-04-27T02:57:04.235Z,100.00
2023-04-27T02:59:31.599Z,100.00
2023-04-27T03:01:59.211Z,100.00
2023-04-27T03:04:28.259Z,100.00
2023-04-27T03:06:55.833Z,100.00
2023-04-27T03:09:23.336Z,100.00
2023-04-27T03:11:50.758Z,100.00
2023-04-27T03:14:18.171Z,100.00
2023-04-27T03:16:45.778Z,100.00
2023-04-27T03:19:13.504Z,100.00
2023-04-27T03:21:40.772Z,100.00
2023-04-27T03:24:08.282Z,100.00
2023-04-27T03:26:35.622Z,100.00
2023-04-27T03:29:03.112Z,100.00
2023-04-27T03:31:30.555Z,100.00
2023-04-27T03:33:57.931Z,100.00
2023-04-27T03:36:25.515Z,100.00
2023-04-27T03:38:52.921Z,100.00
2023-04-27T03:41:20.307Z,100.00
2023-04-27T03:43:47.718Z,100.00
2023-04-27T03:46:15.097Z,100.00
2023-04-27T03:48:44.030Z,100.00
2023-04-27T03:51:11.569Z,100.00
2023-04-27T03:53:38.959Z,100.00
2023-04-27T03:56:06.473Z,100.00
2023-04-27T03:58:33.842Z,100.00
2023-04-27T04:01:01.475Z,100.00
2023-04-27T04:03:29.077Z,100.00
2023-04-27T04:05:56.730Z,100.00
2023-04-27T04:08:24.166Z,100.00
2023-04-27T04:10:51.554Z,100.00
2023-04-27T04:13:18.977Z,100.00
2023-04-27T04:15:46.385Z,100.00
2023-04-27T04:18:13.749Z,100.00
2023-04-27T04:20:41.674Z,100.00
2023-04-27T04:23:09.018Z,100.00
2023-04-27T04:25:36.464Z,100.00
2023-04-27T04:28:03.919Z,100.00
2023-04-27T04:30:31.344Z,100.00
2023-04-27T04:32:58.794Z,100.00
2023-04-27T04:35:26.266Z,100.00
2023-04-27T04:37:53.640Z,100.00
2023-04-27T04:40:21.574Z,100.00
2023-04-27T04:42:49.098Z,100.00
2023-04-27T04:45:16.160Z,100.00
2023-04-27T04:47:43.566Z,100.00
2023-04-27T04:50:12.049Z,100.00
2023-04-27T04:52:39.605Z,100.00
2023-04-27T04:55:07.262Z,100.00
2023-04-27T04:57:34.729Z,100.00
2023-04-27T05:00:02.620Z,100.00
2023-04-27T05:02:30.198Z,100.00
2023-04-27T05:04:58.015Z,100.00
2023-04-27T05:07:25.751Z,100.00
2023-04-27T05:09:53.320Z,100.00
2023-04-27T05:12:20.896Z,100.00
2023-04-27T05:14:48.639Z,100.00
2023-04-27T05:17:16.009Z,100.00
2023-04-27T05:19:43.500Z,100.00
2023-04-27T05:22:11.033Z,100.00
2023-04-27T05:24:38.693Z,100.00
2023-04-27T05:27:06.130Z,100.00
2023-04-27T05:29:33.890Z,100.00
2023-04-27T05:32:01.435Z,100.00
2023-04-27T05:34:28.943Z,100.00
2023-04-27T05:36:56.373Z,100.00
2023-04-27T05:39:23.797Z,100.00
2023-04-27T05:41:51.653Z,100.00
2023-04-27T05:44:19.054Z,100.00
2023-04-27T05:46:46.622Z,100.00
2023-04-27T05:49:14.383Z,100.00
2023-04-27T05:51:42.007Z,100.00
2023-04-27T05:54:10.056Z,100.00
2023-04-27T05:56:38.143Z,100.00
2023-04-27T05:59:06.193Z,100.00
2023-04-27T06:01:33.873Z,100.00
2023-04-27T06:04:02.061Z,100.00
2023-04-27T06:06:33.204Z,100.00
2023-04-27T06:09:00.768Z,100.00
2023-04-27T06:11:28.860Z,100.00
2023-04-27T06:13:56.422Z,100.00
2023-04-27T06:16:24.590Z,100.00
2023-04-27T06:18:52.424Z,100.00
2023-04-27T06:21:19.924Z,100.00
2023-04-27T06:23:47.621Z,100.00
2023-04-27T06:26:15.020Z,100.00
2023-04-27T06:28:42.531Z,100.00
2023-04-27T06:31:10.059Z,100.00
2023-04-27T06:33:37.755Z,100.00
2023-04-27T06:36:05.639Z,100.00
2023-04-27T06:38:33.196Z,100.00
2023-04-27T06:41:00.718Z,100.00
2023-04-27T06:43:28.066Z,100.00
2023-04-27T06:45:55.373Z,100.00
2023-04-27T06:48:23.058Z,100.00
2023-04-27T06:50:51.045Z,100.00
2023-04-27T06:53:18.492Z,100.00
2023-04-27T06:55:48.387Z,100.00
2023-04-27T06:58:16.260Z,100.00
2023-04-27T07:00:43.847Z,100.00
2023-04-27T07:03:11.898Z,100.00
2023-04-27T07:05:39.752Z,100.00
2023-04-27T07:08:08.841Z,100.00
2023-04-27T07:10:36.813Z,100.00
2023-04-27T07:13:05.830Z,100.00
2023-04-27T07:15:34.862Z,100.00
2023-04-27T07:18:02.459Z,100.00
2023-04-27T07:20:30.305Z,100.00
2023-04-27T07:22:57.886Z,100.00
2023-04-27T07:25:25.274Z,100.00
2023-04-27T07:27:52.705Z,100.00
2023-04-27T07:30:20.216Z,100.00
2023-04-27T07:32:55.095Z,100.00
2023-04-27T07:35:22.611Z,100.00
2023-04-27T07:37:50.099Z,100.00
2023-04-27T07:40:18.611Z,100.00
2023-04-27T07:42:46.566Z,100.00
2023-04-27T07:45:14.299Z,100.00
2023-04-27T07:47:42.576Z,100.00
2023-04-27T07:50:10.910Z,100.00
2023-04-27T07:52:38.320Z,100.00
2023-04-27T07:55:06.690Z,100.00
2023-04-27T07:57:34.228Z,100.00
2023-04-27T08:00:02.402Z,100.00
2023-04-27T08:02:31.833Z,100.00
2023-04-27T08:04:59.733Z,100.00
2023-04-27T08:07:28.118Z,100.00
2023-04-27T08:09:55.824Z,100.00
2023-04-27T08:12:23.273Z,100.00
2023-04-27T08:14:50.765Z,100.00
2023-04-27T08:17:18.698Z,100.00
2023-04-27T08:19:46.148Z,100.00
2023-04-27T08:22:13.657Z,100.00
2023-04-27T08:24:41.254Z,100.00
2023-04-27T08:27:08.725Z,100.00
2023-04-27T08:29:36.320Z,100.00
2023-04-27T08:32:04.787Z,100.00
2023-04-27T08:34:32.762Z,100.00
2023-04-27T08:37:00.636Z,100.00
2023-04-27T08:39:28.214Z,100.00
2023-04-27T08:41:56.072Z,100.00
2023-04-27T08:44:23.591Z,100.00
2023-04-27T08:46:51.908Z,100.00
2023-04-27T08:49:20.999Z,100.00
2023-04-27T08:51:48.746Z,100.00
2023-04-27T08:54:16.378Z,100.00
2023-04-27T08:56:43.775Z,100.00
2023-04-27T08:59:16.897Z,100.00
2023-04-27T09:01:49.349Z,100.00
2023-04-27T09:04:18.284Z,100.00
2023-04-27T09:06:46.511Z,100.00
2023-04-27T09:09:23.733Z,100.00
2023-04-27T09:11:51.489Z,100.00
2023-04-27T09:14:24.022Z,100.00
2023-04-27T09:16:59.585Z,100.00
2023-04-27T09:19:30.873Z,100.00
2023-04-27T09:22:11.571Z,100.00
2023-04-27T09:24:39.342Z,100.00
2023-04-27T09:27:07.505Z,100.00
2023-04-27T09:29:39.165Z,100.00
2023-04-27T09:32:20.924Z,100.00
2023-04-27T09:34:48.506Z,100.00
2023-04-27T09:37:16.671Z,100.00
2023-04-27T09:39:44.943Z,100.00
2023-04-27T09:42:13.573Z,100.00
2023-04-27T09:44:41.058Z,100.00
2023-04-27T09:47:08.808Z,100.00
2023-04-27T09:49:36.468Z,100.00
2023-04-27T09:52:04.280Z,100.00
2023-04-27T09:54:33.766Z,100.00
2023-04-27T09:57:33.835Z,100.00
2023-04-27T10:00:34.816Z,100.00
2023-04-27T10:03:37.116Z,100.00
2023-04-27T10:06:34.760Z,100.00
2023-04-27T10:09:06.856Z,100.00
2023-04-27T10:11:47.869Z,100.00
2023-04-27T10:14:21.526Z,100.00
2023-04-27T10:16:57.344Z,100.00
2023-04-27T10:19:25.522Z,100.00
2023-04-27T10:21:57.048Z,100.00
2023-04-27T10:24:41.053Z,100.00
2023-04-27T10:27:11.441Z,100.00
2023-04-27T10:29:48.009Z,100.00
2023-04-27T10:32:25.595Z,100.00
2023-04-27T10:35:04.121Z,100.00
2023-04-27T10:37:42.423Z,100.00
2023-04-27T10:40:17.471Z,100.00
2023-04-27T10:42:49.437Z,100.00
2023-04-27T10:45:30.950Z,100.00
2023-04-27T10:48:01.384Z,100.00
2023-04-27T10:50:29.516Z,100.00
2023-04-27T10:53:04.698Z,100.00
2023-04-27T10:55:32.959Z,100.00
2023-04-27T10:58:01.613Z,100.00
2023-04-27T11:00:39.124Z,100.00
2023-04-27T11:03:17.071Z,100.00
2023-04-27T11:05:47.033Z,100.00
2023-04-27T11:08:17.437Z,100.00
2023-04-27T11:10:53.440Z,100.00
2023-04-27T11:13:26.286Z,100.00
2023-04-27T11:15:57.873Z,100.00
2023-04-27T11:18:38.279Z,99.97
2023-04-27T11:21:16.189Z,97.44
2023-04-27T11:23:44.196Z,97.90
2023-04-27T11:26:18.602Z,95.15
2023-04-27T11:28:59.905Z,92.62
2023-04-27T11:31:28.751Z,91.98
2023-04-27T11:33:56.362Z,94.91
2023-04-27T11:36:24.465Z,94.59
2023-04-27T11:38:52.773Z,89.26
2023-04-27T11:41:20.225Z,99.01
2023-04-27T11:43:49.652Z,100.00
2023-04-27T11:46:21.707Z,95.79
2023-04-27T11:48:49.585Z,96.37
2023-04-27T11:51:16.988Z,94.59
2023-04-27T11:53:48.573Z,89.76
2023-04-27T11:56:16.008Z,95.00
2023-04-27T11:58:46.462Z,100.00
2023-04-27T12:01:15.516Z,94.55
2023-04-27T12:03:44.167Z,94.37
2023-04-27T12:06:31.314Z,100.00
2023-04-27T12:08:59.492Z,100.00
2023-04-27T12:11:30.239Z,100.00
2023-04-27T12:13:57.985Z,97.37
2023-04-27T12:16:25.452Z,90.33
2023-04-27T12:18:53.053Z,98.12
2023-04-27T12:21:20.636Z,90.86
2023-04-27T12:23:48.057Z,97.55
2023-04-27T12:26:15.504Z,96.31
2023-04-27T12:28:43.431Z,91.56
2023-04-27T12:31:16.662Z,91.01
2023-04-27T12:33:43.837Z,90.89
2023-04-27T12:36:11.577Z,98.93
2023-04-27T12:38:38.666Z,97.31
2023-04-27T12:41:06.263Z,100.00
2023-04-27T12:43:33.408Z,100.00
2023-04-27T12:46:00.886Z,97.77
2023-04-27T12:48:28.660Z,97.22
2023-04-27T12:50:56.891Z,100.00
2023-04-27T12:53:24.448Z,100.00
2023-04-27T12:55:51.957Z,95.93
2023-04-27T12:58:20.028Z,97.58
2023-04-27T13:00:47.439Z,94.02
2023-04-27T13:03:15.048Z,100.00
2023-04-27T13:05:42.178Z,95.92
2023-04-27T13:08:09.608Z,97.97
2023-04-27T13:10:37.685Z,93.08
2023-04-27T13:13:05.323Z,91.11
2023-04-27T13:15:32.759Z,90.95
2023-04-27T13:18:01.899Z,95.32
2023-04-27T13:20:29.044Z,100.00
2023-04-27T13:22:56.506Z,97.83
2023-04-27T13:25:24.226Z,100.00
2023-04-27T13:27:51.835Z,100.00
2023-04-27T13:30:19.276Z,100.00
2023-04-27T13:32:46.809Z,100.00
2023-04-27T13:35:14.531Z,98.99
2023-04-27T13:37:42.392Z,96.85
2023-04-27T13:40:11.259Z,96.77
2023-04-27T13:42:39.731Z,92.88
2023-04-27T13:45:07.544Z,99.14
2023-04-27T13:47:37.174Z,100.00
2023-04-27T13:50:10.108Z,100.00
2023-04-27T13:52:38.506Z,99.87
2023-04-27T13:55:08.709Z,100.00
2023-04-27T13:57:36.856Z,100.00
2023-04-27T14:00:08.385Z,100.00
2023-04-27T14:02:36.473Z,100.00
2023-04-27T14:05:05.320Z,100.00
2023-04-27T14:07:34.440Z,100.00
2023-04-27T14:10:02.858Z,100.00
2023-04-27T14:12:32.255Z,100.00
2023-04-27T14:15:00.017Z,100.00
2023-04-27T14:17:27.465Z,100.00
2023-04-27T14:20:00.680Z,100.00
2023-04-27T14:22:28.118Z,100.00
2023-04-27T14:24:56.575Z,100.00
2023-04-27T14:27:24.217Z,100.00
2023-04-27T14:29:51.729Z,100.00
2023-04-27T14:32:19.272Z,100.00
2023-04-27T14:34:46.835Z,100.00
2023-04-27T14:37:14.408Z,100.00
2023-04-27T14:39:43.652Z,100.00
2023-04-27T14:42:12.410Z,100.00
2023-04-27T14:44:39.758Z,100.00
2023-04-27T14:47:07.332Z,100.00
2023-04-27T14:49:34.691Z,100.00
2023-04-27T14:52:04.208Z,100.00
2023-04-27T14:54:31.623Z,100.00
2023-04-27T14:56:59.059Z,100.00
2023-04-27T14:59:26.428Z,100.00
2023-04-27T15:01:53.874Z,100.00
2023-04-27T15:04:21.450Z,100.00
2023-04-27T15:06:48.838Z,100.00
2023-04-27T15:09:16.421Z,100.00
2023-04-27T15:11:43.835Z,100.00
2023-04-27T15:14:12.202Z,100.00
2023-04-27T15:16:39.641Z,100.00
2023-04-27T15:19:06.998Z,100.00
2023-04-27T15:21:34.340Z,100.00
2023-04-27T15:24:01.902Z,100.00
2023-04-27T15:26:29.304Z,100.00
2023-04-27T15:28:58.243Z,100.00
2023-04-27T15:31:26.463Z,100.00
2023-04-27T15:33:54.765Z,100.00
2023-04-27T15:36:23.165Z,100.00
2023-04-27T15:38:51.978Z,100.00
2023-04-27T15:41:19.535Z,100.00
2023-04-27T15:43:47.576Z,100.00
2023-04-27T15:46:15.729Z,99.57
2023-04-27T15:48:43.154Z,100.00
2023-04-27T15:51:10.673Z,100.00
2023-04-27T15:53:38.330Z,100.00
2023-04-27T15:56:05.964Z,100.00
2023-04-27T15:58:33.538Z,100.00
2023-04-27T16:01:01.504Z,100.00
2023-04-27T16:03:29.082Z,100.00
2023-04-27T16:05:56.588Z,100.00
2023-04-27T16:08:25.696Z,100.00
2023-04-27T16:10:53.367Z,100.00
2023-04-27T16:13:20.823Z,100.00
2023-04-27T16:15:48.141Z,100.00
2023-04-27T16:18:15.554Z,100.00
2023-04-27T16:20:42.917Z,100.00
2023-04-27T16:23:10.490Z,100.00
2023-04-27T16:25:37.836Z,100.00
2023-04-27T16:28:05.276Z,100.00
2023-04-27T16:30:32.689Z,100.00
2023-04-27T16:33:00.421Z,100.00
2023-04-27T16:35:29.246Z,100.00
2023-04-27T16:37:56.771Z,100.00
2023-04-27T16:40:24.189Z,100.00
2023-04-27T16:42:52.127Z,100.00
2023-04-27T16:45:19.689Z,100.00
2023-04-27T16:47:47.664Z,100.00
2023-04-27T16:50:20.636Z,100.00
2023-04-27T16:52:51.182Z,100.00
2023-04-27T16:55:30.909Z,100.00
2023-04-27T16:57:58.267Z,100.00
2023-04-27T17:00:26.704Z,100.00
2023-04-27T17:02:54.290Z,100.00
2023-04-27T17:05:22.002Z,100.00
2023-04-27T17:07:49.590Z,100.00
2023-04-27T17:10:18.578Z,100.00
2023-04-27T17:12:46.006Z,100.00
2023-04-27T17:15:13.505Z,100.00
2023-04-27T17:17:41.459Z,100.00
2023-04-27T17:20:10.279Z,100.00
2023-04-27T17:22:38.090Z,100.00
2023-04-27T17:25:06.238Z,100.00
2023-04-27T17:27:33.933Z,100.00
2023-04-27T17:30:01.546Z,100.00
2023-04-27T17:32:29.246Z,100.00
2023-04-27T17:34:57.719Z,100.00
2023-04-27T17:37:25.228Z,100.00
2023-04-27T17:39:53.975Z,100.00
2023-04-27T17:42:21.402Z,100.00
2023-04-27T17:44:49.019Z,100.00
2023-04-27T17:47:18.944Z,100.00
2023-04-27T17:49:46.420Z,100.00
2023-04-27T17:52:13.867Z,100.00
2023-04-27T17:54:41.523Z,100.00
2023-04-27T17:57:09.553Z,100.00
2023-04-27T17:59:37.230Z,100.00
2023-04-27T18:02:04.889Z,100.00
2023-04-27T18:04:32.400Z,100.00
2023-04-27T18:06:59.916Z,100.00
2023-04-27T18:09:28.731Z,100.00
2023-04-27T18:11:56.818Z,100.00
2023-04-27T18:14:24.182Z,100.00
2023-04-27T18:16:51.882Z,100.00
2023-04-27T18:19:19.394Z,100.00
2023-04-27T18:21:46.868Z,100.00
2023-04-27T18:24:14.289Z,100.00
2023-04-27T18:26:41.658Z,100.00
2023-04-27T18:29:09.053Z,100.00
2023-04-27T18:31:36.769Z,100.00
2023-04-27T18:34:04.249Z,100.00
2023-04-27T18:36:31.705Z,100.00
2023-04-27T18:38:59.672Z,100.00
2023-04-27T18:41:27.198Z,100.00
2023-04-27T18:43:54.599Z,100.00
2023-04-27T18:46:22.003Z,100.00
2023-04-27T18:48:49.499Z,100.00
2023-04-27T18:51:16.837Z,100.00
2023-04-27T18:53:44.179Z,100.00
2023-04-27T18:56:12.154Z,100.00
2023-04-27T18:58:39.519Z,100.00
2023-04-27T19:01:07.099Z,100.00
2023-04-27T19:03:37.025Z,100.00
2023-04-27T19:06:04.555Z,100.00
2023-04-27T19:08:31.959Z,100.00
2023-04-27T19:11:00.317Z,100.00
2023-04-27T19:13:27.789Z,100.00
2023-04-27T19:15:55.949Z,100.00
2023-04-27T19:18:23.455Z,100.00
2023-04-27T19:20:51.716Z,100.00
2023-04-27T19:23:21.896Z,100.00
2023-04-27T19:25:49.759Z,100.00
2023-04-27T19:28:18.882Z,100.00
2023-04-27T19:30:46.858Z,100.00
2023-04-27T19:33:15.142Z,100.00
2023-04-27T19:35:44.123Z,100.00
2023-04-27T19:38:11.679Z,100.00
2023-04-27T19:40:39.054Z,100.00
2023-04-27T19:43:07.139Z,100.00
2023-04-27T19:45:34.324Z,100.00
2023-04-27T19:48:01.744Z,100.00
2023-04-27T19:50:29.221Z,100.00
2023-04-27T19:52:56.549Z,100.00
2023-04-27T19:55:24.050Z,100.00
2023-04-27T19:57:52.279Z,100.00
2023-04-27T20:00:19.745Z,100.00
2023-04-27T20:02:54.346Z,100.00
2023-04-27T20:05:22.268Z,100.00
2023-04-27T20:07:52.467Z,100.00
2023-04-27T20:10:19.875Z,100.00
2023-04-27T20:12:56.250Z,100.00
2023-04-27T20:15:24.749Z,100.00
2023-04-27T20:17:53.698Z,100.00
2023-04-27T20:20:21.334Z,100.00
2023-04-27T20:22:48.674Z,100.00
2023-04-27T20:25:16.204Z,100.00
2023-04-27T20:27:47.394Z,100.00
2023-04-27T20:30:14.826Z,100.00
2023-04-27T20:32:42.262Z,100.00
2023-04-27T20:35:11.365Z,100.00
2023-04-27T20:37:40.245Z,100.00
2023-04-27T20:40:11.902Z,100.00
2023-04-27T20:42:42.600Z,100.00
2023-04-27T20:45:11.661Z,100.00
2023-04-27T20:47:39.258Z,100.00
2023-04-27T20:50:08.089Z,100.00
2023-04-27T20:52:35.918Z,100.00
2023-04-27T20:55:04.591Z,100.00
2023-04-27T20:57:32.445Z,100.00
2023-04-27T20:59:59.895Z,100.00
2023-04-27T21:02:27.361Z,100.00
2023-04-27T21:04:54.786Z,100.00
2023-04-27T21:07:22.325Z,100.00
2023-04-27T21:09:49.656Z,100.00
2023-04-27T21:12:17.841Z,100.00
2023-04-27T21:14:45.438Z,100.00
2023-04-27T21:17:15.255Z,100.00
2023-04-27T21:19:42.717Z,100.00
2023-04-27T21:22:10.182Z,100.00
2023-04-27T21:24:37.594Z,100.00
2023-04-27T21:27:05.004Z,100.00
2023-04-27T21:29:34.209Z,100.00
2023-04-27T21:32:01.719Z,100.00
2023-04-27T21:34:29.196Z,100.00
2023-04-27T21:36:56.735Z,100.00
2023-04-27T21:39:24.118Z,100.00
2023-04-27T21:41:51.879Z,100.00
2023-04-27T21:44:19.196Z,100.00
2023-04-27T21:46:46.667Z,100.00
2023-04-27T21:49:14.147Z,100.00
2023-04-27T21:51:41.535Z,100.00
2023-04-27T21:54:08.879Z,100.00
2023-04-27T21:56:37.696Z,100.00
2023-04-27T21:59:05.317Z,100.00
2023-04-27T22:01:33.291Z,100.00
2023-04-27T22:04:01.055Z,100.00
2023-04-27T22:06:45.200Z,100.00
2023-04-27T22:09:30.479Z,100.00
2023-04-27T22:12:12.453Z,100.00
2023-04-27T22:15:00.358Z,100.00
2023-04-27T22:17:41.556Z,100.00
2023-04-27T22:20:25.905Z,100.00
2023-04-27T22:22:55.296Z,100.00
2023-04-27T22:25:45.684Z,100.00
2023-04-27T22:28:41.685Z,100.00
2023-04-27T22:31:30.526Z,100.00
2023-04-27T22:34:14.477Z,100.00
2023-04-27T22:36:42.156Z,100.00
2023-04-27T22:39:27.526Z,100.00
2023-04-27T22:42:18.915Z,100.00
2023-04-27T22:45:07.684Z,100.00
2023-04-27T22:47:52.468Z,100.00
2023-04-27T22:50:24.976Z,100.00
2023-04-27T22:52:53.065Z,100.00
2023-04-27T22:55:20.642Z,100.00
2023-04-27T22:57:49.956Z,100.00
2023-04-27T23:00:17.691Z,100.00
2023-04-27T23:02:45.231Z,100.00
2023-04-27T23:05:12.685Z,100.00
2023-04-27T23:07:41.398Z,100.00
2023-04-27T23:10:09.329Z,100.00
2023-04-27T23:12:37.921Z,100.00
2023-04-27T23:15:05.731Z,100.00
2023-04-27T23:17:33.550Z,100.00
2023-04-27T23:20:02.048Z,100.00
2023-04-27T23:22:29.518Z,100.00
2023-04-27T23:24:56.878Z,100.00
2023-04-27T23:27:25.104Z,100.00
2023-04-27T23:29:52.843Z,100.00
2023-04-27T23:32:21.224Z,100.00
2023-04-27T23:34:48.959Z,100.00
2023-04-27T23:37:16.366Z,100.00
2023-04-27T23:39:43.723Z,100.00
2023-04-27T23:42:11.294Z,100.00
2023-04-27T23:44:38.684Z,100.00
2023-04-27T23:47:06.453Z,100.00
2023-04-27T23:49:33.893Z,100.00
2023-04-27T23:52:01.466Z,100.00
2023-04-27T23:54:32.261Z,100.00
2023-04-27T23:56:59.652Z,100.00
2023-04-27T23:59:27.063Z,100.00
